Time;durP1;ratioP1;P1;durP2;ratioP2;P2;SDS_P1;SDS_P2;PMS_P1;PMS_P2;Temp;Humidity;BMP_temperature;BMP_pressure;BME280_temperature;BME280_humidity;BME280_pressure;Samples;Min_cycle;Max_cycle;Signal;HPM_P1;HPM_P2
2022/07/11 00:02:12;;;;;;;2.45;1.40;;;16.30;80.50;;;15.54;61.56;97997.81;5051805;28;20406;-80
2022/07/11 00:04:42;;;;;;;2.67;1.30;;;16.40;80.90;;;15.53;61.73;98000.72;5051847;28;20892;-81
2022/07/11 00:07:08;;;;;;;2.00;1.50;;;16.30;81.30;;;15.60;61.57;97993.25;5051743;28;20873;-80
2022/07/11 00:09:34;;;;;;;3.08;1.50;;;16.40;81.60;;;15.66;61.57;97997.53;5051353;28;20436;-80
2022/07/11 00:12:01;;;;;;;3.58;1.60;;;16.40;81.60;;;15.75;61.68;97990.59;5051584;28;20429;-81
2022/07/11 00:14:28;;;;;;;4.65;1.85;;;16.50;81.60;;;15.82;61.35;97980.44;5051875;28;20871;-81
2022/07/11 00:16:54;;;;;;;3.08;1.60;;;16.60;81.40;;;15.88;61.26;97982.81;5051741;28;20417;-81
2022/07/11 00:19:21;;;;;;;2.40;1.60;;;16.60;81.60;;;15.88;61.20;97976.66;5051295;28;20484;-81
2022/07/11 00:21:48;;;;;;;2.95;1.70;;;16.70;81.40;;;15.93;61.42;97978.53;5051650;28;20441;-80
2022/07/11 00:24:17;;;;;;;3.50;1.70;;;16.70;81.60;;;15.96;61.41;97972.66;5051646;28;20397;-81
2022/07/11 00:26:43;;;;;;;1.77;1.52;;;16.70;81.60;;;15.97;61.55;97971.56;5051593;28;20398;-80
2022/07/11 00:29:09;;;;;;;2.83;1.80;;;16.70;81.80;;;15.98;61.32;97968.66;5050871;28;20401;-81
2022/07/11 00:31:35;;;;;;;2.97;1.60;;;16.70;82.00;;;16.03;61.14;97973.97;5051529;28;20409;-81
2022/07/11 00:34:02;;;;;;;2.92;1.50;;;16.80;81.90;;;16.01;61.28;97969.97;5051636;28;20410;-81
2022/07/11 00:36:27;;;;;;;2.80;1.70;;;16.80;81.90;;;15.93;61.18;97973.22;5051184;28;20496;-81
2022/07/11 00:38:55;;;;;;;3.42;1.60;;;16.70;81.70;;;15.88;61.67;97971.31;5050808;28;20413;-81
2022/07/11 00:41:21;;;;;;;4.13;1.60;;;16.70;82.10;;;15.79;61.84;97970.28;5051259;28;20420;-80
2022/07/11 00:43:53;;;;;;;2.33;1.63;;;16.60;82.30;;;15.70;61.81;97969.25;5051520;28;20941;-81
2022/07/11 00:46:19;;;;;;;2.13;1.50;;;16.60;82.40;;;15.63;62.23;97972.19;5051348;28;20435;-80
2022/07/11 00:48:45;;;;;;;2.95;1.80;;;16.50;82.70;;;15.57;61.99;97977.78;5050599;28;20952;-81
2022/07/11 00:51:12;;;;;;;3.33;1.60;;;16.40;82.80;;;15.48;62.61;97962.31;5050083;28;20424;-81
2022/07/11 00:53:40;;;;;;;2.42;1.58;;;16.40;83.40;;;15.43;62.75;97966.81;5051037;28;20895;-80
2022/07/11 00:56:08;;;;;;;2.27;1.50;;;16.30;83.80;;;15.35;62.81;97970.81;5050853;28;20907;-81
2022/07/11 00:58:34;;;;;;;3.65;1.73;;;16.20;83.90;;;15.30;63.17;97967.38;5050367;28;20442;-81
2022/07/11 01:01:01;;;;;;;2.92;1.65;;;16.20;84.60;;;15.24;63.63;97961.25;5050504;28;20401;-81
2022/07/11 01:03:27;;;;;;;2.83;1.60;;;16.10;85.00;;;15.27;63.40;97958.03;5050855;28;20467;-81
2022/07/11 01:05:53;;;;;;;4.07;1.60;;;16.10;85.10;;;15.27;63.22;97950.03;5050916;28;20925;-81
2022/07/11 01:08:20;;;;;;;2.30;1.60;;;16.10;85.20;;;15.15;63.62;97957.50;5050260;28;20471;-80
2022/07/11 01:10:46;;;;;;;3.30;1.60;;;16.00;85.40;;;15.11;63.95;97948.41;5050508;28;20451;-80
2022/07/11 01:13:13;;;;;;;3.33;1.70;;;16.00;86.10;;;15.11;63.66;97949.22;5050664;28;20408;-81
2022/07/11 01:15:39;;;;;;;1.90;1.55;;;16.00;86.20;;;15.04;64.12;97951.34;5050677;28;20412;-80
2022/07/11 01:18:05;;;;;;;2.67;1.67;;;16.00;86.60;;;15.05;64.23;97952.16;5049997;28;20513;-80
2022/07/11 01:20:31;;;;;;;4.43;1.63;;;15.90;87.00;;;15.00;64.69;97952.94;5050226;28;20405;-80
2022/07/11 01:23:02;;;;;;;3.22;1.55;;;15.90;87.50;;;15.02;64.74;97950.03;5050591;28;20405;-81
2022/07/11 01:25:30;;;;;;;3.15;1.80;;;15.90;87.80;;;15.00;64.62;97947.63;5050461;28;20424;-81
2022/07/11 01:27:56;;;;;;;2.10;1.63;;;15.90;88.00;;;14.96;64.95;97943.88;5050597;28;20459;-80
2022/07/11 01:30:22;;;;;;;2.35;1.52;;;15.80;88.40;;;14.95;65.04;97952.97;5049621;28;20405;-81
2022/07/11 01:32:51;;;;;;;2.80;1.90;;;15.80;88.90;;;14.97;65.43;97947.34;5050540;28;20834;-81
2022/07/11 01:35:16;;;;;;;3.08;1.70;;;15.80;89.20;;;14.97;65.42;97953.47;5050449;28;20872;-81
2022/07/11 01:37:42;;;;;;;2.13;1.80;;;15.80;89.70;;;14.91;65.57;97953.72;5050132;28;20496;-80
2022/07/11 01:40:11;;;;;;;2.63;1.80;;;15.80;90.00;;;14.88;65.77;97941.75;5049611;28;20863;-81
2022/07/11 01:42:37;;;;;;;3.08;1.80;;;15.80;90.30;;;14.90;65.91;97936.13;5050334;28;20401;-80
2022/07/11 01:45:04;;;;;;;2.60;1.70;;;15.80;90.50;;;14.94;66.21;97942.56;5050266;28;20447;-81
2022/07/11 01:47:30;;;;;;;1.75;1.65;;;15.80;90.70;;;14.86;66.21;97941.22;5050232;28;20412;-81
2022/07/11 01:49:56;;;;;;;3.60;2.15;;;15.70;90.70;;;14.86;66.22;97951.06;5049586;28;20460;-80
2022/07/11 01:52:22;;;;;;;2.40;1.90;;;15.70;91.00;;;14.83;66.60;97943.59;5049901;28;20425;-81
2022/07/11 01:54:48;;;;;;;3.25;1.85;;;15.70;91.30;;;14.84;67.01;97942.53;5049914;28;20393;-80
2022/07/11 01:57:16;;;;;;;3.83;1.85;;;15.70;91.70;;;14.84;66.97;97937.19;5049881;28;20516;-80
2022/07/11 01:59:42;;;;;;;3.22;1.98;;;15.70;91.80;;;14.84;67.10;97931.88;5049327;28;20411;-81
2022/07/11 02:02:08;;;;;;;2.38;1.75;;;15.70;92.10;;;14.85;67.47;97942.28;5049817;28;20437;-80
2022/07/11 02:04:34;;;;;;;2.20;1.70;;;15.70;92.30;;;14.88;67.24;97936.44;5049862;28;20492;-80
2022/07/11 02:07:00;;;;;;;3.10;1.60;;;15.70;92.50;;;14.88;67.45;97941.75;5049898;28;20398;-80
2022/07/11 02:09:26;;;;;;;2.08;1.63;;;15.80;92.50;;;14.92;67.43;97942.00;5049244;28;20417;-80
2022/07/11 02:11:52;;;;;;;3.58;1.90;;;15.70;92.60;;;14.93;67.24;97931.09;5050095;28;20397;-80
2022/07/11 02:14:19;;;;;;;2.65;1.95;;;15.80;92.60;;;14.97;67.09;97932.16;5049741;28;20402;-81
2022/07/11 02:16:45;;;;;;;2.15;1.90;;;15.80;92.60;;;14.97;67.02;97928.69;5049105;28;20509;-80
2022/07/11 02:19:11;;;;;;;2.78;1.85;;;15.80;92.60;;;14.97;67.42;97929.47;5049155;28;20890;-80
2022/07/11 02:21:37;;;;;;;2.13;1.80;;;15.80;92.80;;;14.98;67.20;97936.41;5049521;28;20452;-80
2022/07/11 02:24:04;;;;;;;2.53;1.80;;;15.80;92.90;;;14.98;67.29;97936.41;5049672;28;20929;-80
2022/07/11 02:26:30;;;;;;;3.38;2.13;;;15.80;93.40;;;15.01;67.61;97932.44;5049961;28;20406;-80
2022/07/11 02:28:57;;;;;;;2.20;1.90;;;15.80;93.30;;;15.01;67.57;97932.44;5049140;28;20401;-80
2022/07/11 02:31:24;;;;;;;4.03;2.08;;;15.80;93.30;;;15.01;67.65;97938.56;5049591;28;20488;-80
2022/07/11 02:33:50;;;;;;;2.45;1.95;;;15.80;93.40;;;15.03;67.75;97933.78;5049447;28;21036;-80
2022/07/11 02:36:16;;;;;;;2.70;1.70;;;15.90;93.50;;;15.03;67.95;97933.78;5049422;28;20413;-80
2022/07/11 02:38:42;;;;;;;3.03;1.63;;;15.80;93.70;;;15.03;67.74;97936.44;5048896;28;20482;-80
2022/07/11 02:41:08;;;;;;;3.85;1.92;;;15.90;93.90;;;15.05;67.88;97933.47;5049391;28;20740;-80
2022/07/11 02:43:34;;;;;;;2.65;1.70;;;15.90;94.10;;;15.07;68.02;97936.69;5049340;28;20401;-80
2022/07/11 02:46:00;;;;;;;3.70;2.00;;;15.90;94.30;;;15.09;68.31;97934.56;5048420;28;20436;-80
2022/07/11 02:48:27;;;;;;;2.05;1.77;;;15.90;94.40;;;15.12;68.52;97934.00;5048839;28;20413;-80
2022/07/11 02:50:53;;;;;;;3.25;1.85;;;15.90;94.60;;;15.14;68.19;97937.22;5049025;28;20404;-80
2022/07/11 02:53:19;;;;;;;2.10;1.87;;;15.90;94.70;;;15.15;68.18;97938.03;5049499;28;20409;-80
2022/07/11 02:55:46;;;;;;;2.58;2.10;;;16.00;94.80;;;15.21;68.28;97939.63;5049414;28;20409;-80
2022/07/11 02:58:12;;;;;;;2.70;2.20;;;16.00;94.80;;;15.21;67.91;97940.41;5048777;28;20452;-80
2022/07/11 03:00:38;;;;;;;3.05;2.08;;;16.00;94.70;;;15.21;68.05;97939.63;5048984;28;20405;-80
2022/07/11 03:03:04;;;;;;;2.22;1.88;;;16.00;94.70;;;15.22;68.13;97941.22;5049437;28;20410;-80
2022/07/11 03:05:31;;;;;;;2.73;2.20;;;16.00;94.90;;;15.25;68.16;97932.69;5049228;28;20401;-80
2022/07/11 03:07:58;;;;;;;2.63;2.05;;;16.10;95.00;;;15.27;68.24;97938.53;5049229;28;20400;-80
2022/07/11 03:10:24;;;;;;;2.90;2.30;;;16.10;95.10;;;15.29;67.99;97939.09;5048349;28;20447;-80
2022/07/11 03:12:50;;;;;;;3.13;2.30;;;16.00;95.10;;;15.30;68.32;97938.03;5047879;28;20449;-80
2022/07/11 03:15:16;;;;;;;2.65;2.38;;;16.10;95.20;;;15.35;68.10;97932.69;5049093;28;20452;-80
2022/07/11 03:17:42;;;;;;;2.83;2.17;;;16.10;95.20;;;15.34;67.92;97933.75;5049059;28;20456;-80
2022/07/11 03:20:10;;;;;;;3.38;2.70;;;16.10;95.10;;;15.37;68.03;97933.22;5048206;28;20467;-80
2022/07/11 03:22:37;;;;;;;2.97;2.50;;;16.10;95.30;;;15.40;67.97;97938.84;5049109;28;20397;-80
2022/07/11 03:25:07;;;;;;;3.58;2.72;;;16.20;95.20;;;15.41;68.21;97939.63;5049073;28;20842;-81
2022/07/11 03:27:33;;;;;;;3.42;2.50;;;16.20;95.20;;;15.39;68.12;97945.22;5047881;28;20782;-81
2022/07/11 03:29:59;;;;;;;3.03;2.53;;;16.20;95.40;;;15.39;68.28;97937.22;5052148;28;20417;-81
2022/07/11 03:32:25;;;;;;;5.47;2.55;;;16.20;95.50;;;15.43;68.22;97950.81;5052474;28;20405;-81
2022/07/11 03:37:37;;;;;;;3.55;2.25;;;16.20;95.60;;;15.45;68.40;97940.69;5081829;22;20429;-74
2022/07/11 03:40:05;;;;;;;4.53;2.42;;;16.20;95.70;;;15.47;68.27;97939.34;5092082;28;20398;-74
2022/07/11 03:42:31;;;;;;;4.25;2.67;;;16.20;95.70;;;15.45;68.16;97936.16;5092485;28;20409;-74
2022/07/11 03:44:56;;;;;;;4.15;2.70;;;16.20;95.80;;;15.46;68.20;97943.09;5092542;28;20402;-74
2022/07/11 03:47:22;;;;;;;3.38;2.40;;;16.30;95.90;;;15.46;68.39;97939.63;5083661;28;20982;-75
2022/07/11 03:49:48;;;;;;;3.43;2.80;;;16.20;95.90;;;15.48;68.49;97940.97;5085513;28;20487;-74
2022/07/11 03:52:14;;;;;;;4.13;2.63;;;16.20;96.10;;;15.51;68.43;97936.94;5080599;28;20399;-75
2022/07/11 03:54:43;;;;;;;3.33;2.70;;;16.30;96.20;;;15.51;68.46;97944.94;5081672;28;20801;-74
2022/07/11 03:57:08;;;;;;;4.00;2.40;;;16.30;96.20;;;15.52;68.70;97935.06;5077187;28;20417;-74
2022/07/11 03:59:34;;;;;;;3.80;2.78;;;16.30;96.30;;;15.53;68.71;97932.16;5080486;28;20400;-75
2022/07/11 04:02:00;;;;;;;3.38;2.60;;;16.30;96.50;;;15.55;68.69;97935.38;5073308;28;20407;-73
2022/07/11 04:04:26;;;;;;;4.53;2.60;;;16.30;96.40;;;15.57;68.68;97933.22;5074109;28;20409;-74
2022/07/11 04:06:52;;;;;;;4.85;3.08;;;16.30;96.50;;;15.55;68.92;97940.72;5079791;28;20486;-73
2022/07/11 04:09:18;;;;;;;4.05;2.80;;;16.30;96.60;;;15.54;68.72;97935.63;5087245;28;20934;-74
2022/07/11 04:11:45;;;;;;;4.55;2.65;;;16.30;96.70;;;15.55;68.92;97939.91;5090269;28;20493;-74
2022/07/11 04:14:11;;;;;;;3.65;2.47;;;16.30;96.80;;;15.56;69.05;97942.31;5091721;28;20406;-74
2022/07/11 04:16:37;;;;;;;3.33;2.40;;;16.30;97.00;;;15.58;68.96;97940.16;5073823;28;20418;-74
2022/07/11 04:19:04;;;;;;;2.67;2.47;;;16.30;97.00;;;15.62;69.08;97935.09;5083494;28;20429;-75
2022/07/11 04:21:30;;;;;;;3.03;2.50;;;16.40;97.20;;;15.66;69.04;97938.81;5084373;28;20547;-74
2022/07/11 04:23:56;;;;;;;3.80;2.70;;;16.40;97.30;;;15.68;69.03;97934.00;5091735;28;20513;-74
2022/07/11 04:26:21;;;;;;;2.80;2.60;;;16.40;97.30;;;15.69;69.09;97941.75;5090116;28;20394;-74
2022/07/11 04:28:49;;;;;;;4.35;2.75;;;16.50;97.30;;;15.71;69.01;97938.81;5090507;28;20905;-74
2022/07/11 04:31:15;;;;;;;3.33;2.80;;;16.50;97.30;;;15.72;69.17;97949.19;5091487;28;20412;-75
2022/07/11 04:33:40;;;;;;;2.80;2.50;;;16.50;97.50;;;15.74;69.24;97940.94;5091270;28;20405;-75
2022/07/11 04:36:07;;;;;;;3.77;2.83;;;16.50;97.60;;;15.76;69.22;97942.28;5091685;28;20394;-74
2022/07/11 04:38:33;;;;;;;4.13;2.80;;;16.50;97.60;;;15.78;69.16;97939.34;5090357;28;20413;-76
2022/07/11 04:40:59;;;;;;;3.20;2.90;;;16.50;97.60;;;15.81;69.17;97934.25;5091144;28;20417;-75
2022/07/11 04:43:25;;;;;;;4.68;2.97;;;16.50;97.70;;;15.86;69.38;97936.13;5091365;28;20398;-74
2022/07/11 04:45:52;;;;;;;4.70;3.20;;;16.60;97.80;;;15.91;68.90;97940.63;5091584;28;20410;-75
2022/07/11 04:48:18;;;;;;;3.40;2.70;;;16.60;97.70;;;15.94;68.97;97938.19;5090719;28;20401;-75
2022/07/11 04:50:44;;;;;;;4.10;2.85;;;16.60;97.70;;;16.01;68.73;97937.94;5090984;28;20497;-73
2022/07/11 04:53:11;;;;;;;6.37;3.40;;;16.70;97.70;;;16.06;68.93;97941.38;5091424;28;20439;-74
2022/07/11 04:55:40;;;;;;;3.78;2.90;;;16.80;97.60;;;16.09;68.70;97937.34;5084943;28;20524;-75
2022/07/11 04:58:07;;;;;;;3.85;3.10;;;16.80;97.50;;;16.11;68.56;97938.69;5080020;28;20410;-76
2022/07/11 05:00:33;;;;;;;3.53;2.80;;;16.80;97.20;;;16.13;68.55;97941.88;5076009;28;20817;-76
2022/07/11 05:03:00;;;;;;;5.47;3.30;;;16.80;97.20;;;16.19;68.33;97943.47;5079476;28;20408;-74
2022/07/11 05:05:26;;;;;;;4.18;3.10;;;16.90;97.10;;;16.20;68.20;97936.25;5079536;28;20421;-74
2022/07/11 05:07:52;;;;;;;5.85;3.38;;;16.90;96.80;;;16.23;67.83;97941.06;5083733;28;20910;-74
2022/07/11 05:10:18;;;;;;;4.70;3.10;;;16.90;96.70;;;16.24;67.90;97940.75;5089514;28;20481;-74
2022/07/11 05:12:44;;;;;;;3.40;2.78;;;17.00;96.70;;;16.30;68.03;97944.25;5084142;28;20414;-73
2022/07/11 05:15:10;;;;;;;5.32;3.47;;;17.00;96.80;;;16.31;67.86;97937.03;5079673;28;20447;-74
2022/07/11 05:17:36;;;;;;;7.93;3.70;;;17.00;96.60;;;16.33;67.95;97943.66;5079710;28;20413;-74
2022/07/11 05:20:05;;;;;;;5.77;3.30;;;17.10;96.60;;;16.39;67.81;97944.47;5080530;28;20429;-74
2022/07/11 05:22:31;;;;;;;5.25;3.10;;;17.10;96.50;;;16.40;67.50;97956.72;5075334;28;20407;-73
2022/07/11 05:24:57;;;;;;;2.67;2.47;;;17.10;96.20;;;16.43;67.63;97951.66;5069861;28;20418;-75
2022/07/11 05:27:23;;;;;;;3.00;2.70;;;17.10;96.20;;;16.46;67.80;97948.44;5070088;28;20779;-74
2022/07/11 05:29:49;;;;;;;4.05;2.88;;;17.20;96.30;;;16.51;67.56;97959.09;5052069;28;20476;-75
2022/07/11 05:32:15;;;;;;;4.20;2.63;;;17.20;96.30;;;16.56;67.69;97959.06;5083145;28;20485;-76
2022/07/11 05:34:44;;;;;;;3.25;2.65;;;17.20;96.30;;;16.61;67.52;97951.03;5081245;28;20390;-76
2022/07/11 05:37:13;;;;;;;2.65;2.30;;;17.30;96.20;;;16.67;67.38;97953.69;5081655;28;20406;-76
2022/07/11 05:39:45;;;;;;;2.70;2.50;;;17.30;96.10;;;16.71;67.41;97957.41;5078480;28;20416;-75
2022/07/11 05:42:11;;;;;;;3.20;2.40;;;17.40;96.10;;;16.77;67.37;97961.63;5080691;28;20404;-75
2022/07/11 05:44:37;;;;;;;4.05;2.53;;;17.40;96.00;;;16.81;66.72;97954.69;5081453;28;20549;-75
2022/07/11 05:47:04;;;;;;;4.07;2.78;;;17.50;95.80;;;16.84;65.81;97956.81;5078632;28;20783;-75
2022/07/11 05:49:31;;;;;;;3.83;2.50;;;17.50;94.60;;;16.87;66.07;97958.91;5083043;28;20413;-75
2022/07/11 05:51:57;;;;;;;4.10;2.22;;;17.50;94.60;;;16.91;66.15;97957.31;5081009;28;20410;-75
2022/07/11 05:54:24;;;;;;;2.88;2.28;;;17.60;94.80;;;16.96;66.56;97962.59;5093963;28;20413;-76
2022/07/11 05:56:50;;;;;;;3.67;2.43;;;17.60;94.90;;;17.02;66.59;97966.84;5101303;28;20832;-76
2022/07/11 05:59:17;;;;;;;2.85;2.08;;;17.70;95.10;;;17.09;66.36;97969.19;5102282;28;20456;-75
2022/07/11 06:01:43;;;;;;;2.67;2.20;;;17.70;95.00;;;17.15;66.24;97965.41;5098483;28;20490;-74
2022/07/11 06:04:08;;;;;;;4.03;2.38;;;17.80;94.80;;;17.20;66.16;97965.38;5077899;28;20486;-74
2022/07/11 06:06:34;;;;;;;2.60;2.20;;;17.80;94.60;;;17.25;65.63;97960.78;5069466;28;20487;-76
2022/07/11 06:09:01;;;;;;;2.83;2.15;;;17.90;94.50;;;17.31;65.47;97966.88;5068820;28;20414;-76
2022/07/11 06:11:29;;;;;;;3.47;2.28;;;17.90;94.10;;;17.35;65.39;97967.94;5069428;28;20396;-72
2022/07/11 06:13:55;;;;;;;2.53;2.20;;;18.00;94.00;;;17.39;65.50;97969.78;5069492;28;20396;-73
2022/07/11 06:16:21;;;;;;;3.60;2.37;;;18.00;93.90;;;17.40;64.82;97968.69;5069234;28;20407;-73
2022/07/11 06:18:47;;;;;;;3.78;2.30;;;18.10;93.50;;;17.44;64.86;97970.81;5068802;28;20395;-73
2022/07/11 06:21:14;;;;;;;3.78;2.45;;;18.10;93.30;;;17.56;63.92;97968.56;5071781;28;20936;-73
2022/07/11 06:23:42;;;;;;;4.00;2.38;;;18.10;92.80;;;17.57;63.64;97964.81;5079802;28;20894;-72
2022/07/11 06:26:08;;;;;;;3.13;2.43;;;18.20;92.00;;;17.58;64.00;97972.56;5078510;28;20407;-72
2022/07/11 06:28:35;;;;;;;4.93;2.22;;;18.30;92.30;;;17.64;64.20;97965.31;5078810;28;20406;-72
2022/07/11 06:31:02;;;;;;;2.65;2.20;;;18.30;92.40;;;17.70;64.14;97964.16;5085351;28;20825;-72
2022/07/11 06:33:27;;;;;;;5.38;2.65;;;18.30;92.40;;;17.72;62.62;97970.06;5094396;28;20415;-72
2022/07/11 06:35:53;;;;;;;3.85;2.33;;;18.40;91.10;;;17.76;62.48;97969.19;5092171;28;20485;-72
2022/07/11 06:38:20;;;;;;;4.03;2.60;;;18.40;90.70;;;17.82;63.22;97969.16;5096811;28;20413;-80
2022/07/11 06:40:46;;;;;;;3.03;2.40;;;18.50;91.00;;;17.86;62.90;97975.53;5082792;28;20398;-73
2022/07/11 06:43:12;;;;;;;4.15;2.63;;;18.50;90.90;;;17.86;62.52;97973.66;5079263;28;20407;-73
2022/07/11 06:45:40;;;;;;;3.22;2.33;;;18.50;90.60;;;17.89;62.65;97973.09;5083678;28;20393;-75
2022/07/11 06:48:06;;;;;;;3.72;2.67;;;18.50;90.60;;;17.94;62.33;97967.69;5068322;28;20519;-76
2022/07/11 06:50:32;;;;;;;3.40;2.60;;;18.60;90.40;;;17.91;62.80;97970.91;5070948;28;20409;-75
2022/07/11 06:52:59;;;;;;;2.40;2.20;;;18.60;90.60;;;17.95;63.14;97980.00;5088899;28;20398;-75
2022/07/11 06:55:25;;;;;;;2.22;2.00;;;18.60;91.00;;;18.05;63.29;97979.06;5089148;28;20398;-76
2022/07/11 06:57:51;;;;;;;2.35;2.15;;;18.60;91.20;;;18.15;63.29;97974.41;5087644;28;20426;-76
2022/07/11 07:00:17;;;;;;;4.82;2.47;;;18.70;91.30;;;18.25;62.76;97972.72;5088476;28;20424;-77
2022/07/11 07:02:45;;;;;;;4.72;2.50;;;18.90;90.90;;;18.29;61.61;97974.53;5091920;28;20416;-77
2022/07/11 07:05:11;;;;;;;3.65;2.28;;;19.00;90.00;;;18.37;61.66;97971.22;5093385;28;20887;-76
2022/07/11 07:07:37;;;;;;;3.05;2.35;;;19.00;89.80;;;18.44;61.92;97970.84;5092097;28;20877;-76
2022/07/11 07:10:05;;;;;;;3.35;2.00;;;19.00;89.90;;;18.53;61.78;97961.88;5072111;28;20803;-77
2022/07/11 07:12:31;;;;;;;2.43;2.03;;;19.10;89.80;;;18.65;61.59;97972.22;5072779;28;20463;-78
2022/07/11 07:15:00;;;;;;;2.60;1.88;;;19.20;89.50;;;18.75;61.59;97974.78;5073508;28;20404;-77
2022/07/11 07:17:26;;;;;;;2.38;1.80;;;19.30;89.50;;;18.89;61.56;97980.22;5070961;28;20476;-73
2022/07/11 07:19:53;;;;;;;2.05;1.85;;;19.50;89.20;;;19.00;61.14;97973.63;5078195;28;20406;-76
2022/07/11 07:22:19;;;;;;;1.77;1.52;;;19.50;88.70;;;19.12;60.82;97967.78;5080921;28;20966;-75
2022/07/11 07:24:45;;;;;;;1.75;1.40;;;19.70;88.30;;;19.23;60.41;97966.56;5078523;28;20412;-75
2022/07/11 07:27:11;;;;;;;1.60;1.50;;;19.80;87.60;;;19.30;59.93;97970.47;5080899;28;20417;-75
2022/07/11 07:29:38;;;;;;;1.40;1.30;;;19.90;86.60;;;19.38;59.63;97957.47;5081758;28;20425;-75
2022/07/11 07:32:05;;;;;;;1.50;1.40;;;19.90;86.00;;;19.41;59.20;97965.72;5075094;28;20924;-75
2022/07/11 07:34:33;;;;;;;2.10;1.35;;;20.00;85.30;;;19.45;59.12;97960.56;5092003;28;20485;-75
2022/07/11 07:37:01;;;;;;;1.85;1.48;;;20.00;85.40;;;19.44;58.78;97964.34;5092236;28;20501;-75
2022/07/11 07:39:27;;;;;;;1.60;1.42;;;20.00;83.90;;;19.43;58.79;97966.22;5092115;28;20482;-74
2022/07/11 07:41:53;;;;;;;1.52;1.30;;;20.00;83.70;;;19.39;57.54;97967.91;5092325;28;20480;-73
2022/07/11 07:44:20;;;;;;;1.50;1.10;;;20.00;81.60;;;19.40;57.64;97968.69;5088932;28;20789;-75
2022/07/11 07:46:46;;;;;;;1.40;1.30;;;20.00;81.40;;;19.47;57.69;97969.16;5077274;28;20423;-74
2022/07/11 07:49:12;;;;;;;2.40;1.55;;;20.00;81.80;;;19.54;57.01;97967.69;5089374;28;20929;-74
2022/07/11 07:51:38;;;;;;;1.35;1.20;;;20.10;80.60;;;19.60;57.13;97963.84;5085839;28;21646;-74
2022/07/11 07:54:06;;;;;;;2.22;1.20;;;20.20;80.70;;;19.72;57.23;97955.28;5071447;28;20812;-75
2022/07/11 07:56:31;;;;;;;1.25;1.15;;;20.30;80.60;;;19.81;57.13;97958.88;5073751;28;20922;-74
2022/07/11 07:58:58;;;;;;;1.20;1.10;;;20.40;80.60;;;19.88;56.99;97948.53;5079129;28;20416;-74
2022/07/11 08:01:35;;;;;;;1.30;1.08;;;20.40;80.30;;;19.96;56.61;97958.59;5089660;28;20410;-74
2022/07/11 08:04:02;;;;;;;4.30;1.38;;;20.50;79.90;;;20.02;55.59;97954.72;5088824;28;20406;-74
2022/07/11 08:06:28;;;;;;;1.05;1.00;;;20.60;78.80;;;20.15;55.54;97955.81;5071713;28;20450;-75
2022/07/11 08:08:54;;;;;;;1.10;1.00;;;20.70;78.20;;;20.13;54.00;97949.16;5072092;28;20437;-77
2022/07/11 08:11:22;;;;;;;0.88;0.80;;;20.70;75.60;;;20.12;53.78;97953.75;5067940;28;20433;-77
2022/07/11 08:13:49;;;;;;;1.20;0.93;;;20.70;75.20;;;20.12;54.33;97959.13;5088594;28;20429;-75
2022/07/11 08:16:15;;;;;;;0.95;0.90;;;20.60;75.50;;;20.19;54.46;97958.72;5080942;28;20460;-75
2022/07/11 08:18:41;;;;;;;0.93;0.80;;;20.70;75.80;;;20.32;54.20;97964.09;5069286;28;20818;-76
2022/07/11 08:21:07;;;;;;;0.80;0.80;;;20.80;75.60;;;20.45;53.69;97959.81;5075141;28;20403;-75
2022/07/11 08:23:33;;;;;;;1.70;0.90;;;20.90;75.00;;;20.57;53.71;97965.50;5072627;28;20433;-75
2022/07/11 08:25:59;;;;;;;1.10;1.00;;;21.10;74.70;;;20.74;52.43;97957.59;5082397;28;20503;-74
2022/07/11 08:28:26;;;;;;;1.45;1.17;;;21.30;72.90;;;20.78;51.23;97969.34;5070225;28;20411;-73
2022/07/11 08:30:52;;;;;;;4.32;1.20;;;21.40;71.30;;;20.75;50.48;97950.31;5082083;28;20917;-73
2022/07/11 08:33:18;;;;;;;1.30;1.10;;;21.30;69.80;;;20.65;51.07;97954.03;5090634;28;20471;-73
2022/07/11 08:35:44;;;;;;;2.90;1.20;;;21.20;70.00;;;20.65;51.99;97950.53;5078743;28;20412;-72
2022/07/11 08:38:11;;;;;;;1.52;1.00;;;21.20;71.80;;;20.61;51.82;97946.84;5070273;28;20442;-74
2022/07/11 08:40:37;;;;;;;2.20;1.00;;;21.20;71.40;;;20.52;51.30;97940.59;5072804;28;20403;-73
2022/07/11 08:43:14;;;;;;;3.55;1.20;;;21.20;70.50;;;20.52;50.52;97933.34;5079956;28;20437;-73
2022/07/11 08:45:41;;;;;;;2.47;1.15;;;21.10;69.90;;;20.38;51.09;97932.53;5090264;28;20505;-74
2022/07/11 08:48:11;;;;;;;1.95;1.23;;;21.00;69.70;;;20.35;51.65;97933.16;5085904;28;20422;-73
2022/07/11 08:50:37;;;;;;;1.23;1.00;;;20.90;70.40;;;20.40;51.80;97939.22;5087828;28;20420;-74
2022/07/11 08:53:05;;;;;;;0.70;0.70;;;20.90;70.80;;;20.58;49.09;97923.25;5082904;28;20416;-73
2022/07/11 08:55:31;;;;;;;2.42;1.15;;;21.10;67.50;;;20.65;49.23;97929.00;5086201;28;20885;-74
2022/07/11 08:57:58;;;;;;;1.10;0.80;;;21.20;67.40;;;20.93;48.28;97922.44;5076670;28;21062;-76
2022/07/11 09:00:24;;;;;;;0.77;0.70;;;21.40;66.50;;;21.00;48.91;97922.81;5071387;28;20445;-75
2022/07/11 09:02:53;;;;;;;0.90;0.90;;;21.50;66.90;;;21.07;49.21;97925.88;5072908;28;20427;-75
2022/07/11 09:05:19;;;;;;;0.80;0.80;;;21.60;67.30;;;21.10;48.69;97930.66;5076125;28;20771;-75
2022/07/11 09:07:47;;;;;;;0.95;0.90;;;21.60;66.50;;;21.10;49.23;97929.84;5082580;28;20402;-75
2022/07/11 09:10:15;;;;;;;0.77;0.77;;;21.60;66.90;;;21.12;49.33;97924.97;5087785;28;20518;-75
2022/07/11 09:12:59;;;;;;;1.35;0.75;;;21.60;67.00;;;21.17;49.43;97931.06;5079520;28;20770;-75
2022/07/11 09:15:34;;;;;;;0.80;0.80;;;21.70;67.30;;;21.29;49.22;97933.19;5053859;28;20971;-75
2022/07/11 09:18:02;;;;;;;0.95;0.80;;;21.80;67.40;;;21.35;48.51;97933.88;5069846;28;20426;-74
2022/07/11 09:25:19;;;;;;;0.80;0.70;;;21.90;66.60;;;21.30;47.91;97923.19;5079553;28;20406;-78
2022/07/11 09:26:05;;;;;;;0.80;0.80;;;21.90;65.70;;;21.47;48.30;97929.50;5079074;28;20428;-73
2022/07/11 09:28:31;;;;;;;1.48;0.80;;;22.00;65.80;;;21.53;48.41;97928.28;5077071;28;20897;-73
2022/07/11 09:30:57;;;;;;;0.88;0.80;;;22.00;66.00;;;21.60;47.62;97934.00;5061314;28;20410;-73
2022/07/11 09:33:25;;;;;;;0.70;0.70;;;22.10;64.90;;;21.65;47.49;97933.09;5060672;28;20433;-73
2022/07/11 09:35:51;;;;;;;1.08;0.68;;;22.20;64.70;;;21.76;47.17;97939.78;5078184;28;20510;-74
2022/07/11 09:38:17;;;;;;;1.08;0.88;;;22.20;64.20;;;21.85;46.95;97934.44;5069347;22;20809;-77
2022/07/11 09:40:45;;;;;;;0.70;0.70;;;22.30;64.00;;;22.12;46.81;97936.16;5059037;28;20497;-75
2022/07/11 09:43:11;;;;;;;1.02;0.70;;;22.50;64.00;;;22.36;46.69;97941.94;5062358;28;20411;-75
2022/07/11 09:45:39;;;;;;;0.80;0.80;;;22.80;63.80;;;22.47;46.19;97932.47;5056910;28;20425;-74
2022/07/11 09:48:10;;;;;;;2.08;1.00;;;22.90;63.20;;;22.55;46.07;97939.00;5055884;28;20607;-73
2022/07/11 09:50:39;;;;;;;1.67;0.75;;;23.00;62.60;;;22.61;45.75;97943.91;5050660;28;20413;-76
2022/07/11 09:53:09;;;;;;;0.70;0.70;;;23.10;62.30;;;22.52;44.68;97937.72;5044154;28;20945;-76
2022/07/11 09:55:36;;;;;;;1.50;0.70;;;23.10;60.90;;;22.48;45.58;97934.03;5050296;28;20531;-78
2022/07/11 09:58:05;;;;;;;1.02;0.88;;;22.90;61.60;;;22.39;45.64;97936.75;5048364;28;21296;-75
2022/07/11 10:00:32;;;;;;;0.63;0.60;;;22.90;61.40;;;22.38;46.00;97943.25;5048716;28;20420;-76
2022/07/11 10:02:59;;;;;;;0.70;0.70;;;22.80;62.10;;;22.42;46.65;97945.28;5049165;28;20935;-75
2022/07/11 10:05:26;;;;;;;0.80;0.80;;;22.90;62.80;;;22.44;45.94;97935.78;5050883;28;20401;-75
2022/07/11 10:07:53;;;;;;;0.98;0.70;;;22.90;62.40;;;22.66;43.05;97932.16;5049505;28;20444;-74
2022/07/11 10:10:19;;;;;;;1.30;0.80;;;23.00;59.00;;;22.59;43.19;97929.94;5048506;28;20409;-75
2022/07/11 10:12:48;;;;;;;1.30;0.90;;;23.10;58.60;;;22.71;44.51;97937.41;5049467;28;20421;-81
2022/07/11 10:15:20;;;;;;;1.30;0.67;;;23.20;59.90;;;22.93;44.12;97934.59;5049481;28;20560;-76
2022/07/11 10:17:58;;;;;;;0.65;0.63;;;23.40;60.20;;;22.89;43.47;97933.66;5028899;28;20644;-75
2022/07/11 10:20:32;;;;;;;0.82;0.60;;;23.30;58.80;;;22.94;42.84;97936.19;5046799;28;20413;-77
2022/07/11 10:23:12;;;;;;;1.20;1.00;;;23.30;58.40;;;22.91;43.94;97944.94;5051737;28;20462;-76
2022/07/11 10:25:45;;;;;;;1.30;0.70;;;23.30;59.20;;;22.98;44.00;97942.53;5051358;28;20410;-76